createdAt,value
2023-04-09T00:00:01.185Z,53.29
2023-04-09T00:01:32.729Z,53.81
2023-04-09T00:03:04.350Z,53.82
2023-04-09T00:04:37.274Z,53.40
2023-04-09T00:06:08.849Z,53.85
2023-04-09T00:07:41.399Z,53.94
2023-04-09T00:09:14.109Z,54.24
2023-04-09T00:10:45.688Z,54.16
2023-04-09T00:12:17.198Z,54.22
2023-04-09T00:13:52.400Z,53.76
2023-04-09T00:15:31.052Z,53.94
2023-04-09T00:17:03.606Z,53.72
2023-04-09T00:18:35.628Z,53.25
2023-04-09T00:20:10.386Z,53.89
2023-04-09T00:21:42.454Z,53.96
2023-04-09T00:23:19.750Z,54.12
2023-04-09T00:24:51.981Z,53.50
2023-04-09T00:26:24.114Z,54.09
2023-04-09T00:27:55.823Z,54.17
2023-04-09T00:29:27.549Z,53.70
2023-04-09T00:30:59.421Z,53.85
2023-04-09T00:32:31.500Z,53.72
2023-04-09T00:34:05.556Z,54.29
2023-04-09T00:35:38.135Z,54.11
2023-04-09T00:37:11.821Z,54.48
2023-04-09T00:38:44.523Z,53.79
2023-04-09T00:40:16.311Z,54.62
2023-04-09T00:41:47.862Z,53.91
2023-04-09T00:43:19.333Z,54.37
2023-04-09T00:44:50.885Z,54.61
2023-04-09T00:46:22.350Z,54.68
2023-04-09T00:47:53.917Z,54.38
2023-04-09T00:49:26.573Z,54.85
2023-04-09T00:50:58.990Z,54.92
2023-04-09T00:52:31.525Z,55.29
2023-04-09T00:54:05.897Z,54.53
2023-04-09T00:55:37.561Z,54.39
2023-04-09T00:57:12.150Z,55.21
2023-04-09T00:58:45.518Z,55.30
2023-04-09T01:02:03.276Z,55.07
2023-04-09T01:03:34.996Z,54.29
2023-04-09T01:05:07.238Z,54.36
2023-04-09T01:06:38.739Z,54.99
2023-04-09T01:08:23.815Z,54.43
2023-04-09T01:10:01.559Z,54.83
2023-04-09T01:11:46.605Z,53.98
2023-04-09T01:13:31.027Z,54.01
2023-04-09T01:15:05.046Z,54.67
2023-04-09T01:16:38.463Z,54.45
2023-04-09T01:18:20.516Z,54.56
2023-04-09T01:20:00.376Z,54.56
2023-04-09T01:21:33.639Z,53.89
2023-04-09T01:23:11.226Z,54.03
2023-04-09T01:24:47.435Z,53.93
2023-04-09T01:26:22.094Z,54.30
2023-04-09T01:28:06.234Z,54.21
2023-04-09T01:29:45.716Z,55.04
2023-04-09T01:31:23.640Z,54.66
2023-04-09T01:32:57.741Z,55.16
2023-04-09T01:34:29.580Z,55.50
2023-04-09T01:36:01.236Z,55.20
2023-04-09T01:37:32.802Z,55.38
2023-04-09T01:39:04.438Z,54.70
2023-04-09T01:40:36.557Z,55.21
2023-04-09T01:42:11.268Z,55.29
2023-04-09T01:43:42.874Z,55.22
2023-04-09T01:45:14.374Z,54.82
2023-04-09T01:46:46.795Z,54.83
2023-04-09T01:48:18.291Z,55.50
2023-04-09T01:49:49.825Z,55.53
2023-04-09T01:51:21.302Z,55.20
2023-04-09T01:52:52.903Z,55.00
2023-04-09T01:54:24.353Z,55.01
2023-04-09T01:55:58.110Z,55.42
2023-04-09T01:57:32.226Z,55.36
2023-04-09T01:59:05.697Z,54.75
2023-04-09T02:00:46.409Z,55.56
2023-04-09T02:02:22.920Z,55.01
2023-04-09T02:03:57.485Z,54.84
2023-04-09T02:05:32.223Z,54.91
2023-04-09T02:07:04.924Z,54.89
2023-04-09T02:08:37.577Z,55.08
2023-04-09T02:10:09.722Z,54.57
2023-04-09T02:11:41.889Z,55.13
2023-04-09T02:13:13.524Z,54.56
2023-04-09T02:14:47.577Z,54.69
2023-04-09T02:16:19.128Z,55.38
2023-04-09T02:17:50.777Z,55.02
2023-04-09T02:19:22.288Z,55.48
2023-04-09T02:20:54.267Z,55.18
2023-04-09T02:22:28.721Z,54.89
2023-04-09T02:24:00.284Z,55.77
2023-04-09T02:25:32.368Z,55.70
2023-04-09T02:27:04.107Z,55.22
2023-04-09T02:28:35.929Z,55.10
2023-04-09T02:30:08.081Z,55.20
2023-04-09T02:31:39.598Z,54.73
2023-04-09T02:33:11.430Z,55.18
2023-04-09T02:34:43.508Z,55.22
2023-04-09T02:36:15.078Z,55.00
2023-04-09T02:37:46.803Z,55.36
2023-04-09T02:39:18.550Z,55.21
2023-04-09T02:40:50.297Z,55.26
2023-04-09T02:42:22.271Z,54.91
2023-04-09T02:43:54.346Z,55.43
2023-04-09T02:45:26.083Z,55.02
2023-04-09T02:46:57.709Z,55.28
2023-04-09T02:48:29.182Z,54.83
2023-04-09T02:50:00.684Z,55.37
2023-04-09T02:51:32.566Z,55.28
2023-04-09T02:53:04.235Z,55.54
2023-04-09T02:54:37.846Z,55.17
2023-04-09T02:56:09.654Z,55.40
2023-04-09T02:57:41.732Z,54.81
2023-04-09T02:59:13.702Z,55.38
2023-04-09T03:00:45.663Z,54.95
2023-04-09T03:02:17.775Z,55.25
2023-04-09T03:03:49.592Z,55.14
2023-04-09T03:05:21.184Z,55.79
2023-04-09T03:06:55.684Z,55.19
2023-04-09T03:08:52.229Z,55.88
2023-04-09T03:10:28.217Z,55.70
2023-04-09T03:12:02.100Z,55.60
2023-04-09T03:13:33.899Z,55.20
2023-04-09T03:15:05.760Z,55.97
2023-04-09T03:16:37.209Z,55.24
2023-04-09T03:18:08.732Z,55.73
2023-04-09T03:19:40.288Z,55.72
2023-04-09T03:21:14.743Z,55.71
2023-04-09T03:22:46.649Z,55.79
2023-04-09T03:24:18.252Z,55.72
2023-04-09T03:25:49.753Z,55.55
2023-04-09T03:27:24.064Z,55.82
2023-04-09T03:28:55.883Z,55.89
2023-04-09T03:30:30.095Z,55.58
2023-04-09T03:32:01.922Z,55.98
2023-04-09T03:33:33.339Z,56.07
2023-04-09T03:35:05.119Z,55.80
2023-04-09T03:36:36.644Z,56.25
2023-04-09T03:38:08.595Z,55.72
2023-04-09T03:39:40.191Z,55.95
2023-04-09T03:41:11.870Z,56.08
2023-04-09T03:42:43.593Z,55.80
2023-04-09T03:44:15.771Z,55.68
2023-04-09T03:45:48.013Z,56.22
2023-04-09T03:47:22.603Z,56.12
2023-04-09T03:48:54.395Z,56.19
2023-04-09T03:50:26.198Z,56.06
2023-04-09T03:51:57.889Z,55.47
2023-04-09T03:53:29.530Z,55.86
2023-04-09T03:55:01.298Z,55.96
2023-04-09T03:56:32.959Z,55.82
2023-04-09T03:58:04.458Z,56.12
2023-04-09T03:59:36.072Z,56.15
2023-04-09T04:01:07.733Z,56.08
2023-04-09T04:02:39.354Z,55.85
2023-04-09T04:04:11.089Z,56.04
2023-04-09T04:05:42.575Z,56.04
2023-04-09T04:07:14.103Z,56.12
2023-04-09T04:08:45.604Z,55.84
2023-04-09T04:10:17.118Z,55.82
2023-04-09T04:11:48.657Z,55.74
2023-04-09T04:13:20.441Z,55.99
2023-04-09T04:14:58.254Z,55.97
2023-04-09T04:16:36.251Z,55.71
2023-04-09T04:23:35.424Z,55.85
2023-04-09T04:25:07.280Z,55.96
2023-04-09T04:26:39.700Z,56.01
2023-04-09T04:28:11.254Z,55.75
2023-04-09T04:29:45.430Z,56.38
2023-04-09T04:31:17.243Z,55.66
2023-04-09T04:32:48.986Z,55.77
2023-04-09T04:34:23.309Z,56.05
2023-04-09T04:36:05.693Z,55.82
2023-04-09T04:37:39.466Z,55.92
2023-04-09T04:39:13.201Z,55.51
2023-04-09T04:40:47.695Z,55.87
2023-04-09T04:42:25.397Z,55.57
2023-04-09T04:44:07.779Z,55.65
2023-04-09T04:45:48.456Z,56.21
2023-04-09T04:47:23.489Z,56.15
2023-04-09T04:48:55.288Z,55.97
2023-04-09T04:50:26.855Z,56.07
2023-04-09T04:51:58.349Z,56.01
2023-04-09T04:53:30.375Z,55.72
2023-04-09T04:55:02.030Z,55.80
2023-04-09T04:56:33.650Z,56.67
2023-04-09T04:58:05.409Z,56.57
2023-04-09T04:59:37.469Z,56.93
2023-04-09T05:01:09.288Z,56.27
2023-04-09T05:02:41.181Z,56.17
2023-04-09T05:04:12.730Z,56.48
2023-04-09T05:05:45.843Z,56.92
2023-04-09T05:07:17.785Z,56.73
2023-04-09T05:08:50.066Z,56.53
2023-04-09T05:10:21.950Z,56.88
2023-04-09T05:11:59.430Z,56.98
2023-04-09T05:13:44.329Z,56.58
2023-04-09T05:15:16.172Z,56.72
2023-04-09T05:16:47.802Z,56.39
2023-04-09T05:18:19.378Z,57.01
2023-04-09T05:19:54.339Z,56.48
2023-04-09T05:21:26.307Z,57.20
2023-04-09T05:23:00.704Z,57.01
2023-04-09T05:24:33.538Z,56.37
2023-04-09T05:26:07.224Z,56.03
2023-04-09T05:27:39.754Z,55.98
2023-04-09T05:29:13.938Z,56.50
2023-04-09T05:30:48.667Z,56.45
2023-04-09T05:32:20.445Z,56.24
2023-04-09T05:33:53.522Z,56.64
2023-04-09T05:35:26.862Z,56.08
2023-04-09T05:36:59.423Z,56.66
2023-04-09T05:38:31.422Z,56.20
2023-04-09T05:40:05.381Z,56.45
2023-04-09T05:41:39.900Z,56.42
2023-04-09T05:43:14.232Z,57.08
2023-04-09T05:44:46.504Z,57.06
2023-04-09T05:46:18.457Z,56.81
2023-04-09T05:47:50.408Z,56.86
2023-04-09T05:52:03.421Z,57.09
2023-04-09T05:53:41.893Z,56.44
2023-04-09T05:55:19.878Z,56.52
2023-04-09T05:56:54.271Z,56.70
2023-04-09T05:58:32.800Z,56.49
2023-04-09T06:00:05.407Z,57.04
2023-04-09T06:01:37.238Z,56.51
2023-04-09T06:03:12.764Z,56.57
2023-04-09T06:04:44.712Z,56.62
2023-04-09T06:06:17.992Z,56.75
2023-04-09T06:07:50.915Z,56.77
2023-04-09T06:09:46.546Z,56.56
2023-04-09T06:11:25.388Z,56.37
2023-04-09T06:13:00.571Z,56.63
2023-04-09T06:14:37.929Z,56.72
2023-04-09T06:16:16.003Z,56.82
2023-04-09T06:17:56.518Z,56.76
2023-04-09T06:19:32.325Z,56.70
2023-04-09T06:21:10.626Z,57.03
2023-04-09T06:22:50.325Z,56.90
2023-04-09T06:24:25.717Z,57.04
2023-04-09T06:26:10.583Z,57.33
2023-04-09T06:27:48.306Z,56.97
2023-04-09T06:29:32.538Z,57.08
2023-04-09T06:31:08.662Z,57.04
2023-04-09T06:32:47.273Z,56.83
2023-04-09T06:34:23.000Z,56.93
2023-04-09T06:35:56.546Z,57.23
2023-04-09T06:37:28.293Z,57.22
2023-04-09T06:39:00.340Z,57.93
2023-04-09T06:40:32.209Z,56.98
2023-04-09T06:42:04.163Z,57.03
2023-04-09T06:43:37.035Z,57.72
2023-04-09T06:45:09.167Z,57.10
2023-04-09T06:46:40.766Z,57.26
2023-04-09T06:48:12.447Z,57.58
2023-04-09T06:49:44.012Z,57.20
2023-04-09T06:51:15.588Z,57.16
2023-04-09T06:52:47.411Z,57.70
2023-04-09T06:54:19.226Z,57.13
2023-04-09T06:55:51.377Z,57.37
2023-04-09T06:57:34.461Z,56.94
2023-04-09T06:59:06.355Z,57.37
2023-04-09T07:00:37.941Z,57.29
2023-04-09T07:02:10.251Z,56.81
2023-04-09T07:03:42.408Z,56.85
2023-04-09T07:05:16.580Z,57.02
2023-04-09T07:06:48.370Z,56.66
2023-04-09T07:08:19.844Z,56.94
2023-04-09T07:09:54.540Z,56.66
2023-04-09T07:11:26.591Z,56.53
2023-04-09T07:12:58.409Z,56.55
2023-04-09T07:14:30.775Z,56.29
2023-04-09T07:16:02.858Z,56.61
2023-04-09T07:17:34.648Z,56.44
2023-04-09T07:19:08.050Z,56.47
2023-04-09T07:20:44.564Z,57.10
2023-04-09T07:22:16.513Z,57.17
2023-04-09T07:23:48.207Z,57.47
2023-04-09T07:25:20.000Z,57.60
2023-04-09T07:26:52.633Z,57.83
2023-04-09T07:28:24.567Z,57.80
2023-04-09T07:29:56.877Z,57.32
2023-04-09T07:31:28.514Z,57.48
2023-04-09T07:33:00.516Z,57.40
2023-04-09T07:34:32.120Z,57.29
2023-04-09T07:36:03.868Z,56.40
2023-04-09T07:37:46.343Z,57.01
2023-04-09T07:39:33.290Z,56.57
2023-04-09T07:41:06.347Z,56.67
2023-04-09T07:43:06.974Z,56.62
2023-04-09T07:44:40.250Z,56.63
2023-04-09T07:46:12.042Z,55.97
2023-04-09T07:47:43.921Z,56.26
2023-04-09T07:49:17.330Z,56.31
2023-04-09T07:50:50.018Z,56.01
2023-04-09T07:52:21.785Z,56.09
2023-04-09T07:53:53.449Z,55.88
2023-04-09T07:58:06.119Z,55.79
2023-04-09T07:59:37.878Z,55.91
2023-04-09T08:01:09.603Z,55.81
2023-04-09T08:02:42.653Z,55.88
2023-04-09T08:04:14.671Z,55.31
2023-04-09T08:05:46.589Z,55.46
2023-04-09T08:07:18.388Z,55.46
2023-04-09T08:08:52.869Z,54.90
2023-04-09T08:10:33.779Z,55.09
2023-04-09T08:12:08.180Z,55.23
2023-04-09T08:13:42.799Z,54.71
2023-04-09T08:15:15.485Z,54.79
2023-04-09T08:16:48.974Z,54.55
2023-04-09T08:18:21.552Z,54.30
2023-04-09T08:19:58.934Z,54.33
2023-04-09T08:21:35.222Z,54.24
2023-04-09T08:23:10.526Z,54.47
2023-04-09T08:24:45.393Z,54.60
2023-04-09T08:28:46.833Z,53.95
2023-04-09T08:30:19.087Z,54.52
2023-04-09T08:31:50.762Z,54.06
2023-04-09T08:33:22.514Z,54.08
2023-04-09T08:34:54.179Z,53.78
2023-04-09T08:36:26.674Z,53.80
2023-04-09T08:37:59.029Z,53.65
2023-04-09T08:39:30.672Z,53.36
2023-04-09T08:41:02.600Z,53.60
2023-04-09T08:42:34.630Z,53.65
2023-04-09T08:44:08.773Z,53.51
2023-04-09T08:45:45.468Z,53.72
2023-04-09T08:47:30.888Z,53.43
2023-04-09T08:49:09.067Z,53.53
2023-04-09T08:50:49.265Z,53.29
2023-04-09T08:52:22.200Z,53.44
2023-04-09T08:53:57.083Z,53.01
2023-04-09T08:55:28.849Z,53.03
2023-04-09T08:57:00.489Z,52.81
2023-04-09T08:58:32.118Z,52.68
2023-04-09T09:00:04.704Z,52.57
2023-04-09T09:01:36.709Z,52.78
2023-04-09T09:03:11.901Z,52.51
2023-04-09T09:07:17.583Z,52.56
2023-04-09T09:09:07.957Z,52.41
2023-04-09T09:10:43.479Z,51.98
2023-04-09T09:12:29.237Z,52.23
2023-04-09T09:14:04.779Z,52.01
2023-04-09T09:15:39.344Z,52.17
2023-04-09T09:17:14.448Z,51.91
2023-04-09T09:18:50.881Z,51.77
2023-04-09T09:20:29.478Z,51.75
2023-04-09T09:22:05.921Z,51.74
2023-04-09T09:23:45.582Z,51.82
2023-04-09T09:25:23.208Z,52.08
2023-04-09T09:27:00.530Z,51.61
2023-04-09T09:28:34.912Z,51.82
2023-04-09T09:30:13.440Z,51.58
2023-04-09T09:31:54.359Z,51.40
2023-04-09T09:33:31.066Z,51.85
2023-04-09T09:35:15.604Z,51.64
2023-04-09T09:36:47.558Z,51.22
2023-04-09T09:38:19.263Z,51.60
2023-04-09T09:39:50.830Z,51.45
2023-04-09T09:41:22.574Z,51.12
2023-04-09T09:43:00.472Z,51.25
2023-04-09T09:44:32.858Z,51.56
2023-04-09T09:46:04.485Z,51.42
2023-04-09T09:47:36.759Z,50.96
2023-04-09T09:49:08.524Z,51.48
2023-04-09T09:50:42.017Z,50.71
2023-04-09T09:52:13.728Z,51.08
2023-04-09T09:53:47.109Z,51.24
2023-04-09T09:55:20.093Z,51.48
2023-04-09T09:56:51.921Z,50.72
2023-04-09T09:58:25.046Z,51.06
2023-04-09T10:00:00.993Z,50.60
2023-04-09T10:01:32.875Z,50.75
2023-04-09T10:03:08.860Z,50.60
2023-04-09T10:04:41.815Z,50.93
2023-04-09T10:06:15.375Z,50.46
2023-04-09T10:07:50.266Z,50.60
2023-04-09T10:09:22.068Z,50.61
2023-04-09T10:10:53.724Z,50.62
2023-04-09T10:12:25.395Z,50.47
2023-04-09T10:13:57.926Z,50.75
2023-04-09T10:15:31.458Z,50.63
2023-04-09T10:17:04.353Z,50.77
2023-04-09T10:18:36.176Z,50.15
2023-04-09T10:20:08.179Z,50.28
2023-04-09T10:21:48.645Z,50.02
2023-04-09T10:23:22.472Z,50.30
2023-04-09T10:24:54.261Z,50.13
2023-04-09T10:26:27.957Z,50.25
2023-04-09T10:28:00.367Z,50.20
2023-04-09T10:29:32.347Z,49.84
2023-04-09T10:31:07.810Z,49.71
2023-04-09T10:32:40.123Z,49.97
2023-04-09T10:34:11.836Z,49.62
2023-04-09T10:35:44.177Z,49.79
2023-04-09T10:37:17.187Z,49.71
2023-04-09T10:38:48.868Z,50.14
2023-04-09T10:40:22.821Z,49.94
2023-04-09T10:41:54.701Z,49.99
2023-04-09T10:43:27.215Z,49.55
2023-04-09T10:45:06.391Z,49.73
2023-04-09T10:46:38.184Z,49.70
2023-04-09T10:48:14.392Z,49.73
2023-04-09T10:49:46.509Z,49.44
2023-04-09T10:51:22.165Z,49.48
2023-04-09T10:52:54.499Z,49.37
2023-04-09T10:54:38.008Z,49.44
2023-04-09T10:56:14.939Z,49.35
2023-04-09T10:57:46.656Z,49.12
2023-04-09T10:59:18.531Z,49.39
2023-04-09T11:00:50.890Z,49.13
2023-04-09T11:02:32.201Z,48.87
2023-04-09T11:04:10.550Z,48.65
2023-04-09T11:05:42.274Z,49.01
2023-04-09T11:07:13.825Z,48.77
2023-04-09T11:08:47.431Z,49.11
2023-04-09T11:10:20.038Z,48.64
2023-04-09T11:11:54.548Z,48.73
2023-04-09T11:13:26.250Z,48.82
2023-04-09T11:14:58.004Z,49.02
2023-04-09T11:16:30.095Z,48.33
2023-04-09T11:18:02.419Z,48.55
2023-04-09T11:19:34.129Z,48.48
2023-04-09T11:21:06.043Z,48.61
2023-04-09T11:22:37.513Z,48.56
2023-04-09T11:24:09.218Z,48.89
2023-04-09T11:25:40.777Z,48.28
2023-04-09T11:27:12.698Z,48.85
2023-04-09T11:28:45.924Z,48.65
2023-04-09T11:30:17.667Z,48.77
2023-04-09T11:31:49.427Z,48.63
2023-04-09T11:33:21.452Z,48.72
2023-04-09T11:34:53.050Z,48.61
2023-04-09T11:36:24.881Z,48.89
2023-04-09T11:37:56.656Z,48.76
2023-04-09T11:39:28.584Z,48.99
2023-04-09T11:41:01.464Z,48.78
2023-04-09T11:42:33.114Z,48.67
2023-04-09T11:44:08.197Z,48.50
2023-04-09T11:45:44.388Z,48.62
2023-04-09T11:47:19.808Z,48.44
2023-04-09T11:48:51.799Z,48.82
2023-04-09T11:50:23.594Z,48.57
2023-04-09T11:51:55.153Z,48.17
2023-04-09T11:53:32.110Z,48.40
2023-04-09T11:55:04.802Z,48.79
2023-04-09T11:56:36.959Z,48.79
2023-04-09T11:58:12.561Z,48.07
2023-04-09T11:59:48.683Z,48.18
2023-04-09T12:01:21.508Z,48.58
2023-04-09T12:03:02.010Z,48.15
2023-04-09T12:04:34.461Z,48.45
2023-04-09T12:06:07.368Z,48.30
2023-04-09T12:07:39.607Z,48.33
2023-04-09T12:09:14.388Z,47.95
2023-04-09T12:10:46.490Z,48.29
2023-04-09T12:12:18.561Z,48.28
2023-04-09T12:13:50.444Z,48.55
2023-04-09T12:15:22.890Z,48.49
2023-04-09T12:16:55.313Z,48.07
2023-04-09T12:18:27.028Z,48.51
2023-04-09T12:20:02.355Z,48.06
2023-04-09T12:21:55.828Z,48.10
2023-04-09T12:23:28.089Z,48.17
2023-04-09T12:24:59.844Z,48.13
2023-04-09T12:26:31.563Z,48.05
2023-04-09T12:28:04.116Z,47.96
2023-04-09T12:29:36.211Z,47.68
2023-04-09T12:31:10.274Z,47.81
2023-04-09T12:32:44.995Z,47.45
2023-04-09T12:34:16.712Z,47.80
2023-04-09T12:35:48.468Z,47.44
2023-04-09T12:37:20.184Z,47.85
2023-04-09T12:38:52.654Z,47.52
2023-04-09T12:40:24.684Z,47.70
2023-04-09T12:41:57.969Z,47.31
2023-04-09T12:43:29.666Z,47.88
2023-04-09T12:45:02.087Z,47.52
2023-04-09T12:46:33.929Z,48.02
2023-04-09T12:48:06.109Z,47.93
2023-04-09T12:49:39.095Z,47.67
2023-04-09T12:51:12.269Z,47.94
2023-04-09T12:52:44.431Z,47.93
2023-04-09T12:54:16.436Z,47.88
2023-04-09T12:55:48.457Z,47.54
2023-04-09T12:57:20.264Z,47.96
2023-04-09T12:58:52.711Z,47.79
2023-04-09T13:00:24.911Z,48.05
2023-04-09T13:01:56.980Z,47.97
2023-04-09T13:03:29.484Z,47.96
2023-04-09T13:05:01.405Z,47.97
2023-04-09T13:06:33.407Z,47.53
2023-04-09T13:08:05.344Z,47.50
2023-04-09T13:09:37.004Z,47.69
2023-04-09T13:11:08.556Z,47.72
2023-04-09T13:12:40.393Z,47.40
2023-04-09T13:14:15.035Z,47.47
2023-04-09T13:15:46.620Z,47.17
2023-04-09T13:17:18.540Z,47.20
2023-04-09T13:18:50.266Z,47.17
2023-04-09T13:20:22.121Z,47.42
2023-04-09T13:21:53.767Z,47.17
2023-04-09T13:23:25.491Z,47.10
2023-04-09T13:24:57.582Z,47.12
2023-04-09T13:26:30.496Z,46.96
2023-04-09T13:28:02.226Z,47.06
2023-04-09T13:29:34.289Z,47.20
2023-04-09T13:31:06.212Z,47.10
2023-04-09T13:32:38.739Z,47.46
2023-04-09T13:34:10.904Z,47.01
2023-04-09T13:35:42.621Z,47.31
2023-04-09T13:37:14.504Z,46.81
2023-04-09T13:38:46.479Z,46.79
2023-04-09T13:40:18.382Z,46.98
2023-04-09T13:41:50.009Z,47.10
2023-04-09T13:43:21.679Z,47.10
2023-04-09T13:44:54.001Z,46.96
2023-04-09T13:46:26.223Z,46.94
2023-04-09T13:47:57.959Z,47.01
2023-04-09T13:49:31.115Z,47.01
2023-04-09T13:51:03.112Z,46.92
2023-04-09T13:52:34.822Z,47.26
2023-04-09T13:54:08.206Z,46.94
2023-04-09T13:55:39.924Z,46.96
2023-04-09T13:57:11.758Z,46.92
2023-04-09T13:58:43.947Z,46.73
2023-04-09T14:00:15.728Z,47.00
2023-04-09T14:01:47.714Z,46.79
2023-04-09T14:03:19.606Z,46.88
2023-04-09T14:04:51.411Z,46.44
2023-04-09T14:06:23.180Z,46.54
2023-04-09T14:07:54.806Z,46.75
2023-04-09T14:09:26.860Z,46.33
2023-04-09T14:10:58.767Z,46.83
2023-04-09T14:12:30.942Z,46.69
2023-04-09T14:14:02.667Z,46.49
2023-04-09T14:15:35.350Z,46.35
2023-04-09T14:17:07.074Z,46.13
2023-04-09T14:18:40.130Z,46.29
2023-04-09T14:20:11.921Z,46.27
2023-04-09T14:21:43.965Z,46.43
2023-04-09T14:23:15.989Z,46.52
2023-04-09T14:24:47.843Z,46.00
2023-04-09T14:26:21.674Z,46.01
2023-04-09T14:27:55.501Z,46.32
2023-04-09T14:29:27.249Z,46.40
2023-04-09T14:30:59.934Z,46.65
2023-04-09T14:32:31.845Z,46.08
2023-04-09T14:34:03.782Z,45.84
2023-04-09T14:35:35.761Z,46.16
2023-04-09T14:37:08.083Z,46.14
2023-04-09T14:38:39.743Z,46.25
2023-04-09T14:40:11.516Z,45.97
2023-04-09T14:41:43.350Z,46.12
2023-04-09T14:43:15.235Z,45.96
2023-04-09T14:44:46.781Z,45.45
2023-04-09T14:46:20.368Z,45.42
2023-04-09T14:47:51.995Z,45.95
2023-04-09T14:49:23.892Z,46.09
2023-04-09T14:50:55.814Z,45.87
2023-04-09T14:52:31.091Z,45.62
2023-04-09T14:54:02.846Z,45.74
2023-04-09T14:55:34.661Z,45.52
2023-04-09T14:57:07.169Z,45.29
2023-04-09T14:58:39.012Z,45.54
2023-04-09T15:00:11.557Z,45.21
2023-04-09T15:01:43.167Z,44.55
2023-04-09T15:03:15.043Z,44.69
2023-04-09T15:04:47.341Z,45.05
2023-04-09T15:06:19.030Z,44.98
2023-04-09T15:07:50.676Z,45.20
2023-04-09T15:09:22.331Z,44.66
2023-04-09T15:10:53.912Z,44.51
2023-04-09T15:12:26.263Z,44.69
2023-04-09T15:13:58.156Z,44.66
2023-04-09T15:15:29.690Z,44.50
2023-04-09T15:17:01.296Z,44.89
2023-04-09T15:18:33.550Z,45.23
2023-04-09T15:20:05.396Z,44.96
2023-04-09T15:21:37.022Z,45.22
2023-04-09T15:23:08.982Z,44.36
2023-04-09T15:24:41.255Z,44.82
2023-04-09T15:26:12.798Z,44.53
2023-04-09T15:27:44.366Z,44.79
2023-04-09T15:29:15.975Z,44.61
2023-04-09T15:30:47.547Z,44.30
2023-04-09T15:32:19.501Z,44.55
2023-04-09T15:33:51.682Z,44.54
2023-04-09T15:35:29.770Z,44.51
2023-04-09T15:37:02.044Z,44.75
2023-04-09T15:38:33.733Z,45.47
2023-04-09T15:40:05.523Z,44.87
2023-04-09T15:41:37.482Z,45.07
2023-04-09T15:43:09.218Z,44.87
2023-04-09T15:44:41.585Z,44.83
2023-04-09T15:46:15.669Z,44.96
2023-04-09T15:47:47.909Z,45.28
2023-04-09T15:49:19.797Z,44.75
2023-04-09T15:50:52.262Z,44.89
2023-04-09T15:52:24.313Z,45.22
2023-04-09T15:53:56.020Z,45.47
2023-04-09T15:55:27.870Z,44.81
2023-04-09T15:56:59.501Z,44.57
2023-04-09T15:58:31.349Z,45.51
2023-04-09T16:00:02.930Z,45.23
2023-04-09T16:01:36.003Z,45.09
2023-04-09T16:03:07.775Z,45.24
2023-04-09T16:04:39.463Z,44.75
2023-04-09T16:06:13.504Z,44.82
2023-04-09T16:07:45.353Z,45.45
2023-04-09T16:09:17.163Z,45.44
2023-04-09T16:10:49.130Z,45.16
2023-04-09T16:12:20.926Z,45.06
2023-04-09T16:13:52.748Z,45.20
2023-04-09T16:15:24.458Z,44.89
2023-04-09T16:16:56.272Z,44.63
2023-04-09T16:18:27.950Z,44.80
2023-04-09T16:19:59.682Z,44.01
2023-04-09T16:21:32.415Z,44.61
2023-04-09T16:23:04.048Z,43.88
2023-04-09T16:24:35.793Z,44.11
2023-04-09T16:26:07.453Z,44.78
2023-04-09T16:27:38.990Z,44.10
2023-04-09T16:29:10.749Z,44.57
2023-04-09T16:30:42.904Z,44.65
2023-04-09T16:32:15.226Z,44.39
2023-04-09T16:33:46.885Z,44.98
2023-04-09T16:35:18.993Z,44.51
2023-04-09T16:36:51.664Z,44.75
2023-04-09T16:38:24.854Z,44.57
2023-04-09T16:39:57.849Z,43.92
2023-04-09T16:41:29.764Z,44.83
2023-04-09T16:43:02.357Z,44.67
2023-04-09T16:44:34.090Z,44.26
2023-04-09T16:46:07.522Z,44.67
2023-04-09T16:47:39.183Z,44.64
2023-04-09T16:49:10.944Z,44.78
2023-04-09T16:50:43.189Z,44.26
2023-04-09T16:52:14.878Z,44.31
2023-04-09T16:53:47.267Z,44.35
2023-04-09T16:55:19.481Z,43.93
2023-04-09T16:56:51.377Z,44.34
2023-04-09T16:58:23.099Z,44.13
2023-04-09T16:59:54.773Z,44.06
2023-04-09T17:01:26.438Z,43.70
2023-04-09T17:02:58.139Z,43.70
2023-04-09T17:04:29.971Z,43.79
2023-04-09T17:06:02.036Z,43.91
2023-04-09T17:07:33.665Z,43.54
2023-04-09T17:09:06.587Z,43.53
2023-04-09T17:10:38.377Z,43.45
2023-04-09T17:12:12.880Z,43.77
2023-04-09T17:13:44.901Z,43.56
2023-04-09T17:15:17.359Z,43.18
2023-04-09T17:16:49.520Z,42.84
2023-04-09T17:18:21.412Z,43.49
2023-04-09T17:19:53.714Z,43.06
2023-04-09T17:21:26.540Z,43.19
2023-04-09T17:22:59.489Z,43.42
2023-04-09T17:24:31.127Z,43.40
2023-04-09T17:26:02.729Z,43.32
2023-04-09T17:27:34.410Z,43.53
2023-04-09T17:29:05.980Z,43.34
2023-04-09T17:30:37.640Z,43.36
2023-04-09T17:32:09.310Z,43.21
2023-04-09T17:33:41.946Z,43.66
2023-04-09T17:35:13.566Z,43.64
2023-04-09T17:36:49.819Z,43.03
2023-04-09T17:38:22.160Z,43.54
2023-04-09T17:39:54.040Z,43.18
2023-04-09T17:41:26.558Z,43.47
2023-04-09T17:42:58.113Z,43.02
2023-04-09T17:44:31.685Z,43.50
2023-04-09T17:46:03.491Z,43.64
2023-04-09T17:47:35.143Z,43.92
2023-04-09T17:49:07.187Z,43.41
2023-04-09T17:50:39.147Z,43.73
2023-04-09T17:52:10.842Z,43.37
2023-04-09T17:53:42.527Z,42.95
2023-04-09T17:55:14.262Z,42.74
2023-04-09T17:56:46.258Z,42.70
2023-04-09T17:58:18.032Z,43.24
2023-04-09T17:59:49.673Z,43.11
2023-04-09T18:01:21.561Z,42.98
2023-04-09T18:02:54.196Z,43.08
2023-04-09T18:04:26.598Z,43.60
2023-04-09T18:06:00.760Z,43.96
2023-04-09T18:07:35.564Z,43.18
2023-04-09T18:09:07.826Z,43.82
2023-04-09T18:10:39.664Z,44.04
2023-04-09T18:12:11.533Z,43.86
2023-04-09T18:13:43.183Z,43.40
2023-04-09T18:15:15.536Z,44.06
2023-04-09T18:16:47.682Z,43.31
2023-04-09T18:18:19.276Z,43.85
2023-04-09T18:19:53.293Z,43.63
2023-04-09T18:21:24.955Z,43.84
2023-04-09T18:22:56.668Z,43.65
2023-04-09T18:24:29.544Z,43.82
2023-04-09T18:26:01.321Z,43.84
2023-04-09T18:27:32.958Z,43.49
2023-04-09T18:29:04.606Z,43.85
2023-04-09T18:30:37.639Z,43.65
2023-04-09T18:32:09.528Z,44.19
2023-04-09T18:33:41.248Z,43.75
2023-04-09T18:35:13.115Z,43.73
2023-04-09T18:36:45.079Z,43.75
2023-04-09T18:38:17.805Z,44.41
2023-04-09T18:39:49.890Z,44.18
2023-04-09T18:41:22.756Z,43.77
2023-04-09T18:42:54.459Z,43.66
2023-04-09T18:44:26.303Z,44.16
2023-04-09T18:45:58.612Z,44.45
2023-04-09T18:47:30.581Z,44.49
2023-04-09T18:49:02.178Z,44.08
2023-04-09T18:50:33.798Z,44.37
2023-04-09T18:52:09.346Z,44.42
2023-04-09T18:53:41.787Z,44.46
2023-04-09T18:55:13.899Z,43.73
2023-04-09T18:56:46.485Z,44.09
2023-04-09T18:58:18.775Z,45.15
2023-04-09T18:59:50.391Z,44.90
2023-04-09T19:01:23.126Z,44.39
2023-04-09T19:02:55.103Z,44.71
2023-04-09T19:04:35.318Z,43.99
2023-04-09T19:06:10.706Z,45.01
2023-04-09T19:07:42.284Z,44.07
2023-04-09T19:09:13.948Z,44.38
2023-04-09T19:10:47.819Z,44.77
2023-04-09T19:12:19.397Z,44.58
2023-04-09T19:13:51.516Z,45.04
2023-04-09T19:15:23.462Z,44.36
2023-04-09T19:16:55.103Z,44.26
2023-04-09T19:18:26.945Z,44.00
2023-04-09T19:19:58.469Z,44.95
2023-04-09T19:21:30.139Z,44.87
2023-04-09T19:23:01.897Z,44.76
2023-04-09T19:24:33.720Z,44.77
2023-04-09T19:26:05.647Z,44.62
2023-04-09T19:27:37.287Z,44.41
2023-04-09T19:29:09.539Z,43.89
2023-04-09T19:30:41.436Z,44.64
2023-04-09T19:32:13.484Z,44.41
2023-04-09T19:33:45.218Z,44.94
2023-04-09T19:35:17.443Z,45.12
2023-04-09T19:36:49.031Z,44.58
2023-04-09T19:38:20.685Z,44.52
2023-04-09T19:39:53.103Z,45.09
2023-04-09T19:41:24.638Z,45.60
2023-04-09T19:42:56.401Z,44.99
2023-04-09T19:44:28.049Z,45.48
2023-04-09T19:46:01.271Z,45.07
2023-04-09T19:47:34.926Z,45.58
2023-04-09T19:49:06.651Z,45.10
2023-04-09T19:50:39.433Z,44.59
2023-04-09T19:52:11.172Z,45.64
2023-04-09T19:53:44.169Z,45.32
2023-04-09T19:55:16.556Z,45.62
2023-04-09T19:56:48.156Z,45.46
2023-04-09T19:58:20.286Z,45.56
2023-04-09T19:59:52.877Z,45.56
2023-04-09T20:01:24.589Z,45.23
2023-04-09T20:02:57.474Z,45.10
2023-04-09T20:04:31.204Z,45.27
2023-04-09T20:06:12.105Z,45.77
2023-04-09T20:07:44.425Z,45.46
2023-04-09T20:09:17.377Z,44.98
2023-04-09T20:10:50.052Z,45.32
2023-04-09T20:12:23.833Z,45.94
2023-04-09T20:13:57.225Z,45.31
2023-04-09T20:15:29.230Z,44.86
2023-04-09T20:17:01.173Z,45.08